地図

経路データ

SID SEASON NUMBER BASIN SUBBASIN NAME ISO_TIME NATURE LAT LON WMO_WIND WMO_PRES WMO_AGENCY TRACK_TYPE DIST2LAND LANDFALL IFLAG USA_AGENCY USA_ATCF_ID USA_LAT USA_LON USA_RECORD USA_STATUS USA_WIND USA_PRES USA_SSHS USA_R34_NE USA_R34_SE USA_R34_SW USA_R34_NW USA_R50_NE USA_R50_SE USA_R50_SW USA_R50_NW USA_R64_NE USA_R64_SE USA_R64_SW USA_R64_NW USA_POCI USA_ROCI USA_RMW USA_EYE TOKYO_LAT TOKYO_LON TOKYO_GRADE TOKYO_WIND TOKYO_PRES TOKYO_R50_DIR TOKYO_R50_LONG TOKYO_R50_SHORT TOKYO_R30_DIR TOKYO_R30_LONG TOKYO_R30_SHORT TOKYO_LAND CMA_LAT CMA_LON CMA_CAT CMA_WIND CMA_PRES HKO_LAT HKO_LON HKO_CAT HKO_WIND HKO_PRES NEWDELHI_LAT NEWDELHI_LON NEWDELHI_GRADE NEWDELHI_WIND NEWDELHI_PRES NEWDELHI_CI NEWDELHI_DP NEWDELHI_POCI REUNION_LAT REUNION_LON REUNION_TYPE REUNION_WIND REUNION_PRES REUNION_TNUM REUNION_CI REUNION_RMW REUNION_R34_NE REUNION_R34_SE REUNION_R34_SW REUNION_R34_NW REUNION_R50_NE REUNION_R50_SE REUNION_R50_SW REUNION_R50_NW REUNION_R64_NE REUNION_R64_SE REUNION_R64_SW REUNION_R64_NW BOM_LAT BOM_LON BOM_TYPE BOM_WIND BOM_PRES BOM_TNUM BOM_CI BOM_RMW BOM_R34_NE BOM_R34_SE BOM_R34_SW BOM_R34_NW BOM_R50_NE BOM_R50_SE BOM_R50_SW BOM_R50_NW BOM_R64_NE BOM_R64_SE BOM_R64_SW BOM_R64_NW BOM_ROCI BOM_POCI BOM_EYE BOM_POS_METHOD BOM_PRES_METHOD NADI_LAT NADI_LON NADI_CAT NADI_WIND NADI_PRES WELLINGTON_LAT WELLINGTON_LON WELLINGTON_WIND WELLINGTON_PRES DS824_LAT DS824_LON DS824_STAGE DS824_WIND DS824_PRES TD9636_LAT TD9636_LON TD9636_STAGE TD9636_WIND TD9636_PRES TD9635_LAT TD9635_LON TD9635_WIND TD9635_PRES TD9635_ROCI NEUMANN_LAT NEUMANN_LON NEUMANN_CLASS NEUMANN_WIND NEUMANN_PRES MLC_LAT MLC_LON MLC_CLASS MLC_WIND MLC_PRES USA_GUST BOM_GUST BOM_GUST_PER REUNION_GUST REUNION_GUST_PER USA_SEAHGT USA_SEARAD_NE USA_SEARAD_SE USA_SEARAD_SW USA_SEARAD_NW STORM_SPEED STORM_DIR
1865335S13421 1866 26 SI MM NOT_NAMED 1865-11-30 18:00:00 NR -12.8000 60.6000 main 873 855 __________O___ -1 -12.8000 60.6000 7 5 233
1865335S13421 1866 26 SI MM NOT_NAMED 1865-11-30 21:00:00 NR -12.9533 60.3924 main 845 827 __________P___ -1 -12.9533 60.3924 7 5 232
1865335S13421 1866 26 SI MM NOT_NAMED 1865-12-01 00:00:00 NR -13.1052 60.1978 main 827 810 __________P___ -1 -13.1052 60.1978 7 5 230
1865335S13421 1866 26 SI MM NOT_NAMED 1865-12-01 03:00:00 NR -13.2545 60.0292 main 799 785 __________P___ -1 -13.2545 60.0292 7 4 225
1865335S13421 1866 26 SI MM NOT_NAMED 1865-12-01 06:00:00 NR -13.4000 59.9000 main 785 771 __________O___ -1 -13.4000 59.9000 7 4 216
1865335S13421 1866 26 SI MM NOT_NAMED 1865-12-01 09:00:00 NR -13.5402 59.8180 main 771 750 __________P___ -1 -13.5402 59.8180 7 3 204
1865335S13421 1866 26 SI MM NOT_NAMED 1865-12-01 12:00:00 NR -13.6724 59.7698 main 750 736 __________P___ -1 -13.6724 59.7698 7 3 197
1865335S13421 1866 26 SI MM NOT_NAMED 1865-12-01 15:00:00 NR -13.7934 59.7368 main 736 725 __________P___ -1 -13.7934 59.7368 7 2 197
1865335S13421 1866 26 SI MM NOT_NAMED 1865-12-01 18:00:00 NR -13.9000 59.7000 main 725 711 __________O___ -1 -13.9000 59.7000 7 2 209
1865335S13421 1866 26 SI MM NOT_NAMED 1865-12-01 21:00:00 NR -13.9691 59.6362 main 711 711 __________P___ -1 -13.9691 59.6362 7 2 225
1865335S13421 1866 26 SI MM NOT_NAMED 1865-12-02 00:00:00 NR -14.0275 59.5649 main 711 698 __________P___ -1 -14.0275 59.5649 7 2 229
1865335S13421 1866 26 SI MM NOT_NAMED 1865-12-02 03:00:00 NR -14.0972 59.4861 main 698 684 __________P___ -1 -14.0972 59.4861 7 2 223
1865335S13421 1866 26 SI MM NOT_NAMED 1865-12-02 06:00:00 NR -14.2000 59.4000 main 684 670 __________O___ -1 -14.2000 59.4000 7 3 215
1865335S13421 1866 26 SI MM NOT_NAMED 1865-12-02 09:00:00 NR -14.3600 59.2991 main 660 646 __________P___ -1 -14.3600 59.2991 7 4 210
1865335S13421 1866 26 SI MM NOT_NAMED 1865-12-02 12:00:00 NR -14.5550 59.1926 main 635 611 __________P___ -1 -14.5550 59.1926 7 5 206
1865335S13421 1866 26 SI MM NOT_NAMED 1865-12-02 15:00:00 NR -14.7725 59.0898 main 611 587 __________P___ -1 -14.7725 59.0898 7 5 202
1865335S13421 1866 26 SI MM NOT_NAMED 1865-12-02 18:00:00 NR -15.0000 59.0000 main 587 562 __________O___ -1 -15.0000 59.0000 7 5 200
1865335S13421 1866 26 SI MM NOT_NAMED 1865-12-02 21:00:00 NR -15.2016 58.9234 main 562 541 __________P___ -1 -15.2016 58.9234 7 4 198
1865335S13421 1866 26 SI MM NOT_NAMED 1865-12-03 00:00:00 NR -15.4125 58.8625 main 541 516 __________P___ -1 -15.4125 58.8625 7 5 192
1865335S13421 1866 26 SI MM NOT_NAMED 1865-12-03 03:00:00 NR -15.6422 58.8204 main 516 484 __________P___ -1 -15.6422 58.8204 7 5 187
1865335S13421 1866 26 SI MM NOT_NAMED 1865-12-03 06:00:00 NR -15.9000 58.8000 main 484 451 __________O___ -1 -15.9000 58.8000 7 6 184
1865335S13421 1866 26 SI MM NOT_NAMED 1865-12-03 09:00:00 NR -16.2003 58.7913 main 451 419 __________P___ -1 -16.2003 58.7913 7 6 178
1865335S13421 1866 26 SI MM NOT_NAMED 1865-12-03 12:00:00 NR -16.5275 58.8051 main 419 387 __________P___ -1 -16.5275 58.8051 7 7 177
1865335S13421 1866 26 SI MM NOT_NAMED 1865-12-03 15:00:00 NR -16.8659 58.8413 main 376 348 __________P___ -1 -16.8659 58.8413 7 7 172
1865335S13421 1866 26 SI MM NOT_NAMED 1865-12-03 18:00:00 NR -17.2000 58.9000 main 348 321 __________O___ -1 -17.2000 58.9000 7 7 169
1865335S13421 1866 26 SI MM NOT_NAMED 1865-12-03 21:00:00 NR -17.5175 58.9801 main 321 296 __________P___ -1 -17.5175 58.9801 7 6 165
1865335S13421 1866 26 SI MM NOT_NAMED 1865-12-04 00:00:00 NR -17.8201 59.0772 main 296 273 __________P___ -1 -17.8201 59.0772 7 6 162
1865335S13421 1866 26 SI MM NOT_NAMED 1865-12-04 03:00:00 NR -18.1126 59.1856 main 273 253 __________P___ -1 -18.1126 59.1856 7 6 160
1865335S13421 1866 26 SI MM NOT_NAMED 1865-12-04 06:00:00 NR -18.4000 59.3000 main 253 __________O___ -1 -18.4000 59.3000 7 6 158

IBTrACS Databaseについて

本データベースは、米国NOAAが公開する1842年以降の世界の熱帯低気圧のベストトラックデータアーカイブInternational Best Track Archive for Climate Stewardship (IBTrACS)を、ウェブで閲覧しやすい形式に変換したものです。

最終更新日:2021-12-06